sensor_id;sensor_type;location;lat;lon;timestamp;temperature;humidity
24217;DHT22;12356;49.386;8.688;2023-04-24T00:00:48;13.40;44.90
24217;DHT22;12356;49.386;8.688;2023-04-24T00:03:18;13.40;45.00
24217;DHT22;12356;49.386;8.688;2023-04-24T00:05:51;13.40;45.20
24217;DHT22;12356;49.386;8.688;2023-04-24T00:08:22;13.40;44.80
24217;DHT22;12356;49.386;8.688;2023-04-24T00:10:54;13.40;44.40
24217;DHT22;12356;49.386;8.688;2023-04-24T00:13:25;13.40;44.60
24217;DHT22;12356;49.386;8.688;2023-04-24T00:15:55;13.40;44.60
24217;DHT22;12356;49.386;8.688;2023-04-24T00:18:26;13.40;43.90
24217;DHT22;12356;49.386;8.688;2023-04-24T00:20:57;13.40;43.90
24217;DHT22;12356;49.386;8.688;2023-04-24T00:23:27;13.30;44.10
24217;DHT22;12356;49.386;8.688;2023-04-24T00:25:58;13.40;44.20
24217;DHT22;12356;49.386;8.688;2023-04-24T00:28:29;13.40;45.10
24217;DHT22;12356;49.386;8.688;2023-04-24T00:31:00;13.40;45.20
24217;DHT22;12356;49.386;8.688;2023-04-24T00:33:31;13.40;44.70
24217;DHT22;12356;49.386;8.688;2023-04-24T00:36:01;13.40;44.30
24217;DHT22;12356;49.386;8.688;2023-04-24T00:38:32;13.40;44.40
24217;DHT22;12356;49.386;8.688;2023-04-24T00:41:03;13.40;45.10
24217;DHT22;12356;49.386;8.688;2023-04-24T00:43:34;13.40;45.10
24217;DHT22;12356;49.386;8.688;2023-04-24T00:46:05;13.40;44.80
24217;DHT22;12356;49.386;8.688;2023-04-24T00:48:36;13.40;44.50
24217;DHT22;12356;49.386;8.688;2023-04-24T00:51:07;13.40;44.70
24217;DHT22;12356;49.386;8.688;2023-04-24T00:53:38;13.40;44.30
24217;DHT22;12356;49.386;8.688;2023-04-24T00:56:09;13.40;44.10
24217;DHT22;12356;49.386;8.688;2023-04-24T00:58:40;13.40;44.20
24217;DHT22;12356;49.386;8.688;2023-04-24T01:01:12;13.30;44.50
24217;DHT22;12356;49.386;8.688;2023-04-24T01:03:42;13.40;44.70
24217;DHT22;12356;49.386;8.688;2023-04-24T01:06:13;13.40;44.40
24217;DHT22;12356;49.386;8.688;2023-04-24T01:08:45;13.40;44.50
24217;DHT22;12356;49.386;8.688;2023-04-24T01:11:17;13.40;44.20
24217;DHT22;12356;49.386;8.688;2023-04-24T01:13:48;13.40;44.10
24217;DHT22;12356;49.386;8.688;2023-04-24T01:16:19;13.40;44.80
24217;DHT22;12356;49.386;8.688;2023-04-24T01:18:52;13.40;43.90
24217;DHT22;12356;49.386;8.688;2023-04-24T01:21:23;13.40;44.00
24217;DHT22;12356;49.386;8.688;2023-04-24T01:23:57;13.40;43.90
24217;DHT22;12356;49.386;8.688;2023-04-24T01:26:28;13.40;44.50
24217;DHT22;12356;49.386;8.688;2023-04-24T01:28:59;13.40;43.70
24217;DHT22;12356;49.386;8.688;2023-04-24T01:31:29;13.40;43.40
24217;DHT22;12356;49.386;8.688;2023-04-24T01:34:01;13.40;43.90
24217;DHT22;12356;49.386;8.688;2023-04-24T01:36:33;13.40;44.20
24217;DHT22;12356;49.386;8.688;2023-04-24T01:39:05;13.40;43.90
24217;DHT22;12356;49.386;8.688;2023-04-24T01:41:36;13.40;44.30
24217;DHT22;12356;49.386;8.688;2023-04-24T01:44:06;13.40;44.00
24217;DHT22;12356;49.386;8.688;2023-04-24T01:46:37;13.40;43.70
24217;DHT22;12356;49.386;8.688;2023-04-24T01:49:08;13.40;43.30
24217;DHT22;12356;49.386;8.688;2023-04-24T01:51:39;13.40;43.50
24217;DHT22;12356;49.386;8.688;2023-04-24T01:54:09;13.40;43.00
24217;DHT22;12356;49.386;8.688;2023-04-24T01:56:43;13.40;43.20
24217;DHT22;12356;49.386;8.688;2023-04-24T01:59:15;13.40;42.80
24217;DHT22;12356;49.386;8.688;2023-04-24T02:01:47;13.30;42.70
24217;DHT22;12356;49.386;8.688;2023-04-24T02:04:17;13.30;43.10
24217;DHT22;12356;49.386;8.688;2023-04-24T02:06:48;13.30;43.00
24217;DHT22;12356;49.386;8.688;2023-04-24T02:09:19;13.30;44.00
24217;DHT22;12356;49.386;8.688;2023-04-24T02:11:49;13.40;43.90
24217;DHT22;12356;49.386;8.688;2023-04-24T02:14:20;13.40;43.50
24217;DHT22;12356;49.386;8.688;2023-04-24T02:16:50;13.40;43.50
24217;DHT22;12356;49.386;8.688;2023-04-24T02:19:21;13.40;43.00
24217;DHT22;12356;49.386;8.688;2023-04-24T02:21:51;13.40;43.20
24217;DHT22;12356;49.386;8.688;2023-04-24T02:24:22;13.40;43.40
24217;DHT22;12356;49.386;8.688;2023-04-24T02:26:52;13.40;43.40
24217;DHT22;12356;49.386;8.688;2023-04-24T02:29:23;13.40;43.60
24217;DHT22;12356;49.386;8.688;2023-04-24T02:31:54;13.40;43.80
24217;DHT22;12356;49.386;8.688;2023-04-24T02:34:24;13.30;43.70
24217;DHT22;12356;49.386;8.688;2023-04-24T02:36:55;13.30;43.40
24217;DHT22;12356;49.386;8.688;2023-04-24T02:39:26;13.30;43.40
24217;DHT22;12356;49.386;8.688;2023-04-24T02:41:56;13.30;43.40
24217;DHT22;12356;49.386;8.688;2023-04-24T02:44:27;13.30;43.80
24217;DHT22;12356;49.386;8.688;2023-04-24T02:46:57;13.30;43.40
24217;DHT22;12356;49.386;8.688;2023-04-24T02:49:28;13.20;43.30
24217;DHT22;12356;49.386;8.688;2023-04-24T02:51:58;13.20;43.70
24217;DHT22;12356;49.386;8.688;2023-04-24T02:54:29;13.30;43.90
24217;DHT22;12356;49.386;8.688;2023-04-24T02:56:59;13.30;44.10
24217;DHT22;12356;49.386;8.688;2023-04-24T02:59:31;13.20;43.80
24217;DHT22;12356;49.386;8.688;2023-04-24T03:02:02;13.20;44.50
24217;DHT22;12356;49.386;8.688;2023-04-24T03:04:32;13.20;44.20
24217;DHT22;12356;49.386;8.688;2023-04-24T03:07:03;13.20;44.40
24217;DHT22;12356;49.386;8.688;2023-04-24T03:09:34;13.20;44.40
24217;DHT22;12356;49.386;8.688;2023-04-24T03:12:05;13.20;44.80
24217;DHT22;12356;49.386;8.688;2023-04-24T03:14:35;13.20;46.10
24217;DHT22;12356;49.386;8.688;2023-04-24T03:17:06;13.20;46.80
24217;DHT22;12356;49.386;8.688;2023-04-24T03:19:36;13.20;48.60
24217;DHT22;12356;49.386;8.688;2023-04-24T03:22:07;13.10;49.30
24217;DHT22;12356;49.386;8.688;2023-04-24T03:24:39;13.00;51.20
24217;DHT22;12356;49.386;8.688;2023-04-24T03:27:10;12.90;52.80
24217;DHT22;12356;49.386;8.688;2023-04-24T03:29:41;12.80;55.10
24217;DHT22;12356;49.386;8.688;2023-04-24T03:32:11;12.70;55.20
24217;DHT22;12356;49.386;8.688;2023-04-24T03:34:42;12.50;55.20
24217;DHT22;12356;49.386;8.688;2023-04-24T03:37:12;12.50;55.10
24217;DHT22;12356;49.386;8.688;2023-04-24T03:39:43;12.50;57.00
24217;DHT22;12356;49.386;8.688;2023-04-24T03:42:14;12.40;57.60
24217;DHT22;12356;49.386;8.688;2023-04-24T03:44:44;12.30;59.00
24217;DHT22;12356;49.386;8.688;2023-04-24T03:47:15;12.20;59.60
24217;DHT22;12356;49.386;8.688;2023-04-24T03:49:45;12.30;59.70
24217;DHT22;12356;49.386;8.688;2023-04-24T03:52:16;12.20;60.00
24217;DHT22;12356;49.386;8.688;2023-04-24T03:54:46;12.10;61.10
24217;DHT22;12356;49.386;8.688;2023-04-24T03:57:17;12.10;61.70
24217;DHT22;12356;49.386;8.688;2023-04-24T03:59:47;12.00;61.20
24217;DHT22;12356;49.386;8.688;2023-04-24T04:02:18;11.90;61.90
24217;DHT22;12356;49.386;8.688;2023-04-24T04:04:48;12.00;62.30
24217;DHT22;12356;49.386;8.688;2023-04-24T04:07:19;11.90;62.40
24217;DHT22;12356;49.386;8.688;2023-04-24T04:09:49;11.90;61.80
24217;DHT22;12356;49.386;8.688;2023-04-24T04:12:20;11.90;62.00
24217;DHT22;12356;49.386;8.688;2023-04-24T04:14:50;11.90;62.80
24217;DHT22;12356;49.386;8.688;2023-04-24T04:17:21;12.00;63.50
24217;DHT22;12356;49.386;8.688;2023-04-24T04:19:51;12.00;63.60
24217;DHT22;12356;49.386;8.688;2023-04-24T04:22:22;11.90;63.40
24217;DHT22;12356;49.386;8.688;2023-04-24T04:24:53;11.80;63.90
24217;DHT22;12356;49.386;8.688;2023-04-24T04:27:23;11.80;62.80
24217;DHT22;12356;49.386;8.688;2023-04-24T04:29:54;11.80;62.40
24217;DHT22;12356;49.386;8.688;2023-04-24T04:32:26;11.80;62.50
24217;DHT22;12356;49.386;8.688;2023-04-24T04:34:57;11.80;62.70
24217;DHT22;12356;49.386;8.688;2023-04-24T04:37:28;11.80;63.00
24217;DHT22;12356;49.386;8.688;2023-04-24T04:39:59;11.70;63.20
24217;DHT22;12356;49.386;8.688;2023-04-24T04:42:30;11.80;63.50
24217;DHT22;12356;49.386;8.688;2023-04-24T04:45:00;11.80;63.30
24217;DHT22;12356;49.386;8.688;2023-04-24T04:47:32;11.70;63.00
24217;DHT22;12356;49.386;8.688;2023-04-24T04:50:03;11.70;62.70
24217;DHT22;12356;49.386;8.688;2023-04-24T04:52:35;11.60;62.90
24217;DHT22;12356;49.386;8.688;2023-04-24T04:55:06;11.60;62.90
24217;DHT22;12356;49.386;8.688;2023-04-24T04:57:38;11.50;63.70
24217;DHT22;12356;49.386;8.688;2023-04-24T05:00:09;11.50;64.10
24217;DHT22;12356;49.386;8.688;2023-04-24T05:02:40;11.60;64.10
24217;DHT22;12356;49.386;8.688;2023-04-24T05:05:11;11.60;64.30
24217;DHT22;12356;49.386;8.688;2023-04-24T05:07:41;11.50;64.20
24217;DHT22;12356;49.386;8.688;2023-04-24T05:10:12;11.50;63.90
24217;DHT22;12356;49.386;8.688;2023-04-24T05:12:42;11.60;64.40
24217;DHT22;12356;49.386;8.688;2023-04-24T05:15:13;11.50;64.40
24217;DHT22;12356;49.386;8.688;2023-04-24T05:17:44;11.50;63.90
24217;DHT22;12356;49.386;8.688;2023-04-24T05:20:14;11.50;64.00
24217;DHT22;12356;49.386;8.688;2023-04-24T05:22:45;11.50;64.00
24217;DHT22;12356;49.386;8.688;2023-04-24T05:25:15;11.60;64.50
24217;DHT22;12356;49.386;8.688;2023-04-24T05:27:46;11.60;64.90
24217;DHT22;12356;49.386;8.688;2023-04-24T05:30:17;11.60;64.20
24217;DHT22;12356;49.386;8.688;2023-04-24T05:32:47;11.60;63.00
24217;DHT22;12356;49.386;8.688;2023-04-24T05:35:17;11.60;63.20
24217;DHT22;12356;49.386;8.688;2023-04-24T05:37:49;11.60;62.40
24217;DHT22;12356;49.386;8.688;2023-04-24T05:40:19;11.60;62.00
24217;DHT22;12356;49.386;8.688;2023-04-24T05:42:50;11.60;62.00
24217;DHT22;12356;49.386;8.688;2023-04-24T05:45:20;11.60;62.40
24217;DHT22;12356;49.386;8.688;2023-04-24T05:47:51;11.60;61.30
24217;DHT22;12356;49.386;8.688;2023-04-24T05:50:22;11.70;61.20
24217;DHT22;12356;49.386;8.688;2023-04-24T05:52:53;11.60;61.10
24217;DHT22;12356;49.386;8.688;2023-04-24T05:55:24;11.70;60.20
24217;DHT22;12356;49.386;8.688;2023-04-24T05:57:56;11.60;58.40
24217;DHT22;12356;49.386;8.688;2023-04-24T06:00:26;11.60;57.90
24217;DHT22;12356;49.386;8.688;2023-04-24T06:02:57;11.70;59.40
24217;DHT22;12356;49.386;8.688;2023-04-24T06:05:27;11.70;61.10
24217;DHT22;12356;49.386;8.688;2023-04-24T06:07:58;11.70;60.60
24217;DHT22;12356;49.386;8.688;2023-04-24T06:10:28;11.70;60.00
24217;DHT22;12356;49.386;8.688;2023-04-24T06:12:59;11.70;57.90
24217;DHT22;12356;49.386;8.688;2023-04-24T06:15:33;11.70;56.20
24217;DHT22;12356;49.386;8.688;2023-04-24T06:18:03;11.80;57.50
24217;DHT22;12356;49.386;8.688;2023-04-24T06:20:34;11.80;58.90
24217;DHT22;12356;49.386;8.688;2023-04-24T06:23:04;11.80;59.90
24217;DHT22;12356;49.386;8.688;2023-04-24T06:25:35;11.80;59.90
24217;DHT22;12356;49.386;8.688;2023-04-24T06:28:06;11.80;58.10
24217;DHT22;12356;49.386;8.688;2023-04-24T06:30:36;11.80;57.00
24217;DHT22;12356;49.386;8.688;2023-04-24T06:33:07;11.80;57.00
24217;DHT22;12356;49.386;8.688;2023-04-24T06:35:37;11.80;58.00
24217;DHT22;12356;49.386;8.688;2023-04-24T06:38:10;11.80;59.10
24217;DHT22;12356;49.386;8.688;2023-04-24T06:40:41;11.80;60.00
24217;DHT22;12356;49.386;8.688;2023-04-24T06:43:11;11.80;59.20
24217;DHT22;12356;49.386;8.688;2023-04-24T06:45:42;11.90;57.90
24217;DHT22;12356;49.386;8.688;2023-04-24T06:48:14;11.90;57.40
24217;DHT22;12356;49.386;8.688;2023-04-24T06:50:45;11.90;56.40
24217;DHT22;12356;49.386;8.688;2023-04-24T06:53:17;11.90;55.50
24217;DHT22;12356;49.386;8.688;2023-04-24T06:55:47;11.90;55.40
24217;DHT22;12356;49.386;8.688;2023-04-24T06:58:18;11.90;56.30
24217;DHT22;12356;49.386;8.688;2023-04-24T07:00:49;11.90;55.30
24217;DHT22;12356;49.386;8.688;2023-04-24T07:03:19;11.90;51.20
24217;DHT22;12356;49.386;8.688;2023-04-24T07:05:50;11.90;51.60
24217;DHT22;12356;49.386;8.688;2023-04-24T07:08:21;11.90;46.50
24217;DHT22;12356;49.386;8.688;2023-04-24T07:10:52;11.90;47.20
24217;DHT22;12356;49.386;8.688;2023-04-24T07:13:23;11.90;47.50
24217;DHT22;12356;49.386;8.688;2023-04-24T07:15:54;11.80;48.50
24217;DHT22;12356;49.386;8.688;2023-04-24T07:18:25;11.80;51.30
24217;DHT22;12356;49.386;8.688;2023-04-24T07:20:56;11.80;53.70
24217;DHT22;12356;49.386;8.688;2023-04-24T07:23:26;11.70;49.10
24217;DHT22;12356;49.386;8.688;2023-04-24T07:25:57;11.60;51.40
24217;DHT22;12356;49.386;8.688;2023-04-24T07:28:28;11.60;52.00
24217;DHT22;12356;49.386;8.688;2023-04-24T07:31:01;11.50;49.70
24217;DHT22;12356;49.386;8.688;2023-04-24T07:33:31;11.50;51.40
24217;DHT22;12356;49.386;8.688;2023-04-24T07:36:02;11.40;50.70
24217;DHT22;12356;49.386;8.688;2023-04-24T07:38:33;11.40;48.60
24217;DHT22;12356;49.386;8.688;2023-04-24T07:41:04;11.40;49.90
24217;DHT22;12356;49.386;8.688;2023-04-24T07:43:35;11.40;50.80
24217;DHT22;12356;49.386;8.688;2023-04-24T07:46:06;11.40;53.00
24217;DHT22;12356;49.386;8.688;2023-04-24T07:48:37;11.40;55.20
24217;DHT22;12356;49.386;8.688;2023-04-24T07:51:08;11.40;51.60
24217;DHT22;12356;49.386;8.688;2023-04-24T07:53:42;11.40;51.70
24217;DHT22;12356;49.386;8.688;2023-04-24T07:56:13;11.40;50.70
24217;DHT22;12356;49.386;8.688;2023-04-24T07:58:43;11.50;52.90
24217;DHT22;12356;49.386;8.688;2023-04-24T08:01:14;11.50;50.90
24217;DHT22;12356;49.386;8.688;2023-04-24T08:03:44;11.50;52.10
24217;DHT22;12356;49.386;8.688;2023-04-24T08:06:15;11.50;51.90
24217;DHT22;12356;49.386;8.688;2023-04-24T08:08:45;11.60;50.70
24217;DHT22;12356;49.386;8.688;2023-04-24T08:11:16;11.60;50.30
24217;DHT22;12356;49.386;8.688;2023-04-24T08:13:46;11.60;49.20
24217;DHT22;12356;49.386;8.688;2023-04-24T08:16:17;11.80;50.90
24217;DHT22;12356;49.386;8.688;2023-04-24T08:18:48;11.90;49.80
24217;DHT22;12356;49.386;8.688;2023-04-24T08:21:18;12.00;48.50
24217;DHT22;12356;49.386;8.688;2023-04-24T08:23:50;12.10;44.30
24217;DHT22;12356;49.386;8.688;2023-04-24T08:26:20;12.20;44.40
24217;DHT22;12356;49.386;8.688;2023-04-24T08:28:51;12.30;42.80
24217;DHT22;12356;49.386;8.688;2023-04-24T08:31:21;12.40;42.50
24217;DHT22;12356;49.386;8.688;2023-04-24T08:33:53;12.40;42.30
24217;DHT22;12356;49.386;8.688;2023-04-24T08:36:23;12.40;40.30
24217;DHT22;12356;49.386;8.688;2023-04-24T08:38:54;12.30;37.70
24217;DHT22;12356;49.386;8.688;2023-04-24T08:41:24;12.30;38.00
24217;DHT22;12356;49.386;8.688;2023-04-24T08:43:57;12.30;36.70
24217;DHT22;12356;49.386;8.688;2023-04-24T08:46:30;12.20;37.60
24217;DHT22;12356;49.386;8.688;2023-04-24T08:49:01;12.20;36.10
24217;DHT22;12356;49.386;8.688;2023-04-24T08:51:32;12.10;35.10
24217;DHT22;12356;49.386;8.688;2023-04-24T08:54:04;12.10;36.30
24217;DHT22;12356;49.386;8.688;2023-04-24T08:56:36;12.20;33.60
24217;DHT22;12356;49.386;8.688;2023-04-24T08:59:10;12.10;31.90
24217;DHT22;12356;49.386;8.688;2023-04-24T09:01:41;12.00;31.30
24217;DHT22;12356;49.386;8.688;2023-04-24T09:04:14;12.00;32.40
24217;DHT22;12356;49.386;8.688;2023-04-24T09:06:48;12.00;34.90
24217;DHT22;12356;49.386;8.688;2023-04-24T09:09:19;12.00;34.20
24217;DHT22;12356;49.386;8.688;2023-04-24T09:11:51;12.00;36.00
24217;DHT22;12356;49.386;8.688;2023-04-24T09:14:23;12.10;32.50
24217;DHT22;12356;49.386;8.688;2023-04-24T09:16:54;12.10;32.20
24217;DHT22;12356;49.386;8.688;2023-04-24T09:19:25;12.10;28.60
24217;DHT22;12356;49.386;8.688;2023-04-24T09:21:56;12.20;31.20
24217;DHT22;12356;49.386;8.688;2023-04-24T09:24:26;12.30;29.60
24217;DHT22;12356;49.386;8.688;2023-04-24T09:26:58;12.30;29.30
24217;DHT22;12356;49.386;8.688;2023-04-24T09:29:29;12.40;27.80
24217;DHT22;12356;49.386;8.688;2023-04-24T09:32:18;12.30;26.70
24217;DHT22;12356;49.386;8.688;2023-04-24T09:34:48;12.30;26.20
24217;DHT22;12356;49.386;8.688;2023-04-24T09:37:28;12.30;26.40
24217;DHT22;12356;49.386;8.688;2023-04-24T09:40:19;12.20;26.20
24217;DHT22;12356;49.386;8.688;2023-04-24T09:42:55;12.30;26.50
24217;DHT22;12356;49.386;8.688;2023-04-24T09:45:37;12.20;25.50
24217;DHT22;12356;49.386;8.688;2023-04-24T09:48:11;12.20;25.80
24217;DHT22;12356;49.386;8.688;2023-04-24T09:50:46;12.20;25.60
24217;DHT22;12356;49.386;8.688;2023-04-24T09:53:24;12.20;26.00
24217;DHT22;12356;49.386;8.688;2023-04-24T09:55:55;12.20;26.10
24217;DHT22;12356;49.386;8.688;2023-04-24T09:58:26;12.30;27.60
24217;DHT22;12356;49.386;8.688;2023-04-24T10:00:57;12.40;28.80
24217;DHT22;12356;49.386;8.688;2023-04-24T10:03:30;12.40;28.00
24217;DHT22;12356;49.386;8.688;2023-04-24T10:06:02;12.50;24.00
24217;DHT22;12356;49.386;8.688;2023-04-24T10:08:38;12.50;20.90
24217;DHT22;12356;49.386;8.688;2023-04-24T10:11:09;12.50;23.00
24217;DHT22;12356;49.386;8.688;2023-04-24T10:13:41;12.60;24.60
24217;DHT22;12356;49.386;8.688;2023-04-24T10:16:12;12.60;22.30
24217;DHT22;12356;49.386;8.688;2023-04-24T10:18:43;12.60;22.80
24217;DHT22;12356;49.386;8.688;2023-04-24T10:21:15;12.60;23.50
24217;DHT22;12356;49.386;8.688;2023-04-24T10:23:46;12.60;22.30
24217;DHT22;12356;49.386;8.688;2023-04-24T10:26:19;12.60;23.10
24217;DHT22;12356;49.386;8.688;2023-04-24T10:28:50;12.60;22.80
24217;DHT22;12356;49.386;8.688;2023-04-24T10:31:22;12.50;21.50
24217;DHT22;12356;49.386;8.688;2023-04-24T10:33:53;12.50;22.10
24217;DHT22;12356;49.386;8.688;2023-04-24T10:36:25;12.50;22.80
24217;DHT22;12356;49.386;8.688;2023-04-24T10:39:00;12.50;22.50
24217;DHT22;12356;49.386;8.688;2023-04-24T10:41:31;12.40;22.60
24217;DHT22;12356;49.386;8.688;2023-04-24T10:44:06;12.40;23.80
24217;DHT22;12356;49.386;8.688;2023-04-24T10:46:38;12.40;23.20
24217;DHT22;12356;49.386;8.688;2023-04-24T10:49:09;12.40;24.70
24217;DHT22;12356;49.386;8.688;2023-04-24T10:51:49;12.40;25.70
24217;DHT22;12356;49.386;8.688;2023-04-24T10:54:34;12.40;23.50
24217;DHT22;12356;49.386;8.688;2023-04-24T11:00:19;12.40;24.80
24217;DHT22;12356;49.386;8.688;2023-04-24T11:02:52;12.40;24.90
24217;DHT22;12356;49.386;8.688;2023-04-24T11:05:50;12.40;25.00
24217;DHT22;12356;49.386;8.688;2023-04-24T11:08:43;12.40;25.30
24217;DHT22;12356;49.386;8.688;2023-04-24T11:11:16;12.40;25.00
24217;DHT22;12356;49.386;8.688;2023-04-24T11:19:08;12.50;25.50
24217;DHT22;12356;49.386;8.688;2023-04-24T11:21:46;12.60;24.30
24217;DHT22;12356;49.386;8.688;2023-04-24T11:35:08;12.70;25.50
24217;DHT22;12356;49.386;8.688;2023-04-24T11:37:43;12.70;24.90
24217;DHT22;12356;49.386;8.688;2023-04-24T11:40:17;12.80;24.90
24217;DHT22;12356;49.386;8.688;2023-04-24T11:42:51;12.80;23.90
24217;DHT22;12356;49.386;8.688;2023-04-24T11:45:26;12.80;24.10
24217;DHT22;12356;49.386;8.688;2023-04-24T11:47:57;12.90;24.60
24217;DHT22;12356;49.386;8.688;2023-04-24T11:50:29;12.90;24.20
24217;DHT22;12356;49.386;8.688;2023-04-24T11:52:59;13.00;24.70
24217;DHT22;12356;49.386;8.688;2023-04-24T11:55:30;13.00;24.10
24217;DHT22;12356;49.386;8.688;2023-04-24T11:58:01;13.00;22.60
24217;DHT22;12356;49.386;8.688;2023-04-24T12:00:32;13.10;20.80
24217;DHT22;12356;49.386;8.688;2023-04-24T12:03:10;13.00;18.70
24217;DHT22;12356;49.386;8.688;2023-04-24T12:05:41;13.00;19.90
24217;DHT22;12356;49.386;8.688;2023-04-24T12:08:12;13.00;19.40
24217;DHT22;12356;49.386;8.688;2023-04-24T12:10:56;13.00;18.80
24217;DHT22;12356;49.386;8.688;2023-04-24T12:13:27;13.00;20.40
24217;DHT22;12356;49.386;8.688;2023-04-24T12:15:58;13.00;20.40
24217;DHT22;12356;49.386;8.688;2023-04-24T12:18:29;13.00;20.50
24217;DHT22;12356;49.386;8.688;2023-04-24T12:21:19;12.90;18.60
24217;DHT22;12356;49.386;8.688;2023-04-24T12:23:50;12.90;19.90
24217;DHT22;12356;49.386;8.688;2023-04-24T12:26:24;12.90;20.60
24217;DHT22;12356;49.386;8.688;2023-04-24T12:29:01;12.80;20.50
24217;DHT22;12356;49.386;8.688;2023-04-24T12:31:33;12.80;20.40
24217;DHT22;12356;49.386;8.688;2023-04-24T12:34:04;12.90;19.40
24217;DHT22;12356;49.386;8.688;2023-04-24T12:36:35;12.90;20.10
24217;DHT22;12356;49.386;8.688;2023-04-24T12:39:15;12.90;19.70
24217;DHT22;12356;49.386;8.688;2023-04-24T12:41:56;13.00;19.60
24217;DHT22;12356;49.386;8.688;2023-04-24T12:44:33;13.00;17.60
24217;DHT22;12356;49.386;8.688;2023-04-24T12:47:04;13.00;18.00
24217;DHT22;12356;49.386;8.688;2023-04-24T12:49:35;13.10;17.90
24217;DHT22;12356;49.386;8.688;2023-04-24T12:52:05;13.10;18.90
24217;DHT22;12356;49.386;8.688;2023-04-24T12:54:36;13.20;18.90
24217;DHT22;12356;49.386;8.688;2023-04-24T12:57:06;13.40;18.80
24217;DHT22;12356;49.386;8.688;2023-04-24T12:59:37;13.50;18.00
24217;DHT22;12356;49.386;8.688;2023-04-24T13:02:09;13.60;16.60
24217;DHT22;12356;49.386;8.688;2023-04-24T13:04:40;13.60;17.00
24217;DHT22;12356;49.386;8.688;2023-04-24T13:07:11;13.60;15.70
24217;DHT22;12356;49.386;8.688;2023-04-24T13:09:44;13.60;17.30
24217;DHT22;12356;49.386;8.688;2023-04-24T13:12:14;13.70;16.60
24217;DHT22;12356;49.386;8.688;2023-04-24T13:14:45;13.70;16.20
24217;DHT22;12356;49.386;8.688;2023-04-24T13:17:16;13.70;14.50
24217;DHT22;12356;49.386;8.688;2023-04-24T13:19:50;13.70;17.20
24217;DHT22;12356;49.386;8.688;2023-04-24T13:22:21;13.70;15.90
24217;DHT22;12356;49.386;8.688;2023-04-24T13:24:51;13.80;16.50
24217;DHT22;12356;49.386;8.688;2023-04-24T13:27:22;13.80;15.90
24217;DHT22;12356;49.386;8.688;2023-04-24T13:29:52;13.80;16.00
24217;DHT22;12356;49.386;8.688;2023-04-24T13:32:23;13.80;16.60
24217;DHT22;12356;49.386;8.688;2023-04-24T13:34:53;13.80;15.90
24217;DHT22;12356;49.386;8.688;2023-04-24T13:37:24;13.80;17.00
24217;DHT22;12356;49.386;8.688;2023-04-24T13:39:55;13.80;16.60
24217;DHT22;12356;49.386;8.688;2023-04-24T13:42:25;13.80;16.90
24217;DHT22;12356;49.386;8.688;2023-04-24T13:44:56;13.90;16.50
24217;DHT22;12356;49.386;8.688;2023-04-24T13:47:26;14.00;16.10
24217;DHT22;12356;49.386;8.688;2023-04-24T13:49:57;14.10;14.60
24217;DHT22;12356;49.386;8.688;2023-04-24T13:52:27;14.20;13.10
24217;DHT22;12356;49.386;8.688;2023-04-24T13:54:58;14.30;12.80
24217;DHT22;12356;49.386;8.688;2023-04-24T13:57:28;14.30;13.30
24217;DHT22;12356;49.386;8.688;2023-04-24T14:00:01;14.30;13.20
24217;DHT22;12356;49.386;8.688;2023-04-24T14:02:34;14.30;11.60
24217;DHT22;12356;49.386;8.688;2023-04-24T14:05:04;14.20;11.80
24217;DHT22;12356;49.386;8.688;2023-04-24T14:07:36;14.20;13.00
24217;DHT22;12356;49.386;8.688;2023-04-24T14:10:07;14.20;11.90
24217;DHT22;12356;49.386;8.688;2023-04-24T14:12:37;14.10;12.10
24217;DHT22;12356;49.386;8.688;2023-04-24T14:15:08;14.00;12.30
24217;DHT22;12356;49.386;8.688;2023-04-24T14:17:40;14.00;13.30
24217;DHT22;12356;49.386;8.688;2023-04-24T14:22:43;13.80;13.60
24217;DHT22;12356;49.386;8.688;2023-04-24T14:25:14;13.80;13.40
24217;DHT22;12356;49.386;8.688;2023-04-24T14:27:45;13.80;15.20
24217;DHT22;12356;49.386;8.688;2023-04-24T14:30:17;13.70;15.70
24217;DHT22;12356;49.386;8.688;2023-04-24T14:32:48;13.70;14.00
24217;DHT22;12356;49.386;8.688;2023-04-24T14:35:20;13.60;13.50
24217;DHT22;12356;49.386;8.688;2023-04-24T14:37:50;13.60;14.30
24217;DHT22;12356;49.386;8.688;2023-04-24T14:40:21;13.50;14.00
24217;DHT22;12356;49.386;8.688;2023-04-24T14:42:52;13.50;15.30
24217;DHT22;12356;49.386;8.688;2023-04-24T14:45:22;13.50;15.70
24217;DHT22;12356;49.386;8.688;2023-04-24T14:47:53;13.50;15.90
24217;DHT22;12356;49.386;8.688;2023-04-24T14:50:24;13.50;16.50
24217;DHT22;12356;49.386;8.688;2023-04-24T14:52:58;13.60;19.00
24217;DHT22;12356;49.386;8.688;2023-04-24T14:55:28;13.50;17.60
24217;DHT22;12356;49.386;8.688;2023-04-24T14:57:59;13.40;14.80
24217;DHT22;12356;49.386;8.688;2023-04-24T15:00:30;13.40;16.30
24217;DHT22;12356;49.386;8.688;2023-04-24T15:03:01;13.40;17.60
24217;DHT22;12356;49.386;8.688;2023-04-24T15:05:31;13.30;20.70
24217;DHT22;12356;49.386;8.688;2023-04-24T15:08:02;13.30;24.60
24217;DHT22;12356;49.386;8.688;2023-04-24T15:10:33;13.20;27.90
24217;DHT22;12356;49.386;8.688;2023-04-24T15:13:03;13.20;26.90
24217;DHT22;12356;49.386;8.688;2023-04-24T15:15:34;13.10;28.70
24217;DHT22;12356;49.386;8.688;2023-04-24T15:18:05;13.10;29.40
24217;DHT22;12356;49.386;8.688;2023-04-24T15:20:35;13.10;31.40
24217;DHT22;12356;49.386;8.688;2023-04-24T15:23:08;13.10;34.60
24217;DHT22;12356;49.386;8.688;2023-04-24T15:25:39;13.20;30.50
24217;DHT22;12356;49.386;8.688;2023-04-24T15:28:09;13.20;31.40
24217;DHT22;12356;49.386;8.688;2023-04-24T15:30:40;13.10;28.30
24217;DHT22;12356;49.386;8.688;2023-04-24T15:33:10;13.10;27.50
24217;DHT22;12356;49.386;8.688;2023-04-24T15:35:41;13.10;26.90
24217;DHT22;12356;49.386;8.688;2023-04-24T15:38:12;13.10;27.40
24217;DHT22;12356;49.386;8.688;2023-04-24T15:40:43;13.20;27.60
24217;DHT22;12356;49.386;8.688;2023-04-24T15:43:15;13.20;27.50
24217;DHT22;12356;49.386;8.688;2023-04-24T15:45:46;13.20;26.90
24217;DHT22;12356;49.386;8.688;2023-04-24T15:48:17;13.20;28.00
24217;DHT22;12356;49.386;8.688;2023-04-24T15:50:48;13.20;24.90
24217;DHT22;12356;49.386;8.688;2023-04-24T15:53:19;13.10;25.00
24217;DHT22;12356;49.386;8.688;2023-04-24T15:55:52;13.10;21.50
24217;DHT22;12356;49.386;8.688;2023-04-24T15:58:24;13.00;22.60
24217;DHT22;12356;49.386;8.688;2023-04-24T16:00:54;13.00;24.30
24217;DHT22;12356;49.386;8.688;2023-04-24T16:03:25;13.00;25.60
24217;DHT22;12356;49.386;8.688;2023-04-24T16:05:56;13.00;25.30
24217;DHT22;12356;49.386;8.688;2023-04-24T16:08:27;13.00;26.80
24217;DHT22;12356;49.386;8.688;2023-04-24T16:10:57;13.00;25.10
24217;DHT22;12356;49.386;8.688;2023-04-24T16:13:28;13.10;23.10
24217;DHT22;12356;49.386;8.688;2023-04-24T16:16:02;13.00;23.00
24217;DHT22;12356;49.386;8.688;2023-04-24T16:18:32;13.00;23.20